Extreme weather reports worldwide

Highest temperatures

Station
 
Location
 
Name
 
Wind
Knots
Gust
Knots
Vis
SM
Temp/Dew
C
Baro
inHg
METAR
 
PAV SBUF Paulo Afonso, BR Paulo Afonso Airport 4 6.21 36/13 29.76 SBUF 301800Z 17004KT 9999 FEW022 SCT090 36/13 Q1008
MSLU 3 6.21 35/16 29.88 MSLU 301750Z 10003KT CAVOK 35/16 Q1012 A2989
TUD GOTT Tambacounda, SN Tambacounda Airport 2 4.97 35/10 29.79 GOTT 301800Z 13002KT 8000 NSC 35/10 Q1009
MGMT 4 6.21 35/24 MGMT 301800Z 18004KT CAVOK 35/24
IPN SBIP Ipatinga, BR Usiminas Airport 7 6.21 35/21 29.65 SBIP 301800Z AUTO 08007KT 050V120 CAVOK 35/21 Q1004

Station
 
Location
 
Name
 
Wind
Knots
Gust
Knots
Vis
SM
Temp/Dew
C
Baro
inHg
METAR
 
MVF SBMS Mossoró, BR Dix-Sept Rosado Airport 16 6.21 35/21 29.76 SBMS 301800Z 04016KT 9999 FEW030 35/21 Q1008
TET FQTT Tete, MZ Chingozi Airport 12 6.21 34/9 29.82 FQTT 301800Z 12012KT CAVOK 34/09 Q1010
GAKD 6 3.73 34/9 29.82 GAKD 301800Z 04006KT 6000 NSC 34/09 Q1010
NIX GANR Nioro du Sahel, ML Nioro du Sahel Airport 4 6.21 34/8 29.88 GANR 301800Z 06004KT CAVOK 34/08 Q1012
AFL SBAT Alta Floresta, BR Piloto Osvaldo Marques Dias Airport 8 6.21 34/23 29.73 SBAT 301800Z 33008KT 9999 SCT030 34/23 Q1007
JDO SBJU Juazeiro Do Norte, BR Orlando Bezerra de Menezes Airport 4 6.21 34/16 29.85 SBJU 301800Z 01004KT 9999 SCT022 34/16 Q1011
TFF SBTF Tefé, BR Tefé Airport 7 6.21 34/25 29.73 SBTF 301800Z 05007KT 9999 SCT020 34/25 Q1007
PSZ SLPS Puerto Suárez, BO Capitán Av. Salvador Ogaya G. airport 0 6.21 34/23 29.79 SLPS 301800Z 00000KT 9999 FEW017 SCT200 34/23 Q1009
SAL MSLP San Salvador (San Luis Talpa), SV Monseñor Óscar Arnulfo Romero International Airport 11 6.21 34/17 29.82 MSLP 301850Z 03011KT 360V070 CAVOK 34/17 Q1010 A2984 NOSIG
MHCH 20 6.21 34/20 MHCH 301900Z 04020KT 9999 NSC 34/20
BVB SBBV Boa Vista, BR Atlas Brasil Cantanhede Airport 6 6.21 34/21 29.73 SBBV 301900Z 09006KT 9999 VCSH SCT020 BKN035 FEW040TCU BKN090 34/21 Q1007
MCP SBMQ Macapá, BR Alberto Alcolumbre Airport 8 6.21 34/24 29.70 SBMQ 301900Z 05008KT 9999 SCT020 34/24 Q1006
MSSM San Miguel, SV El Papalon Airport 2 6.21 33/20 29.88 MSSM 301750Z 09002KT CAVOK 33/20 Q1012 A2990
OUA DFFD Ouagadougou, BF Ouagadougou Airport 4 4.97 33/4 29.85 DFFD 301800Z 13004KT 8000 NSC 33/04 Q1011 NOSIG
NIM DRRN Niamey, NE Diori Hamani International Airport 3 4.97 33/-4 29.85 DRRN 301800Z 05003KT 8000 NSC 33/M04 Q1011 NOSIG
MGA MNMG Managua, NI Augusto C. Sandino (Managua) International Airport 14 6.21 33/16 29.85 MNMG 301800Z 08014KT 9999 FEW024 33/16 Q1011 A2986 NOSIG
TUC SANT San Miguel de Tucumán, AR Teniente Benjamin Matienzo Airport 14 6.21 33/12 29.70 SANT 301800Z 09014KT 9999 SCT060 33/12 Q1006
JUJ SASJ San Salvador de Jujuy, AR Gobernador Horacio Guzman International Airport 11 6.21 33/7 29.79 SASJ 301800Z 07011KT 340V100 9999 FEW060 33/07 Q1009 RMK PP000
ITB SBIH Itaituba, BR Itaituba Airport 5 6.21 33/25 29.73 SBIH 301800Z 06005KT 9999 SCT020 33/25 Q1007
BYC SLYA Yacuíba, BO Yacuiba Airport 8 6.21 33/19 29.79 SLYA 301800Z 06008KT 9999 SCT070 33/19 Q1009
TPP SPST Tarapoto, PE Cadete FAP Guillermo Del Castillo Paredes Airport 16 6.21 33/21 29.79 SPST 301800Z 34016KT 9999 SCT015TCU 33/21 Q1009 RMK BIRD HAZARD RWY 17/35 PP000
ZIH MMZH Ixtapa, MX Ixtapa Zihuatanejo International Airport 5 6 33/25 29.96 MMZH 301842Z 22005KT 6SM FEW020 33/25 A2996 RMK 8/100 HZY ISOL CI
BEL SBBE Belém, BR Val de Cans/Júlio Cezar Ribeiro International Airport 5 6.21 33/22 29.73 SBBE 301900Z 09005KT 9999 SCT045 33/22 Q1007
MAB SBMA Marabá, BR João Correa da Rocha Airport 6 6.21 33/24 29.73 SBMA 301900Z 03006KT 9999 FEW025 SCT100 33/24 Q1007
PAP MTPP Port-au-Prince, HT Toussaint Louverture International Airport 4 6.21 32/20 29.91 MTPP 301750Z 07004KT 010V120 9999 SCT028 32/20 Q1013 A2993 NOSIG
OXB GGOV Bissau, GW Osvaldo Vieira International Airport 2 4.97 32/17 29.82 GGOV 301800Z VRB02KT 8000 NSC 32/17 Q1010 NOSIG
MGTU 4 6.21 32/21 MGTU 301800Z 20004KT CAVOK 32/21
MNCH Chinandega, NI Chinandega Airport 4 6.21 32/18 29.85 MNCH 301800Z 18004KT CAVOK 32/18 Q1011
RCU SAOC Rio Cuarto, AR Area De Material Airport 22 37 6.21 32/13 29.73 SAOC 301800Z 02022G37KT 9999 FEW030 FEW045CB 32/13 Q1007 RMK CB OBS TO S
JCR SBEK Jacareacanga, BR Jacareacanga Airport 4 6.21 32/24 29.73 SBEK 301800Z 36004KT CAVOK 32/24 Q1007
IMP SBIZ Imperatriz, BR Prefeito Renato Moreira Airport 4 6.21 32/23 29.76 SBIZ 301800Z 10004KT 9999 BKN025 32/23 Q1008
CPV SBKG Campina Grande, BR Presidente João Suassuna Airport 10 6.21 32/17 29.82 SBKG 301800Z 07010KT 9999 SCT030 32/17 Q1010
SBUY 5 6.21 32/23 29.68 SBUY 301800Z 07005KT 9999 SCT030 FEW035TCU 32/23 Q1005
RBO SLRB Roboré, BO Roboré Airport 0 6.21 32/24 29.85 SLRB 301800Z 00000KT 9999 SCT070 32/24 Q1011
PEM SPTU Puerto Maldonado, PE Padre Aldamiz International Airport 9 6.21 32/22 29.73 SPTU 301800Z 29009KT 250V340 9999 SCT020 32/22 Q1007 RMK BIRD HAZARD RWY 01/19 PP000
LTM SYLT Lethem, GY Lethem Airport 12 6.21 32/23 SYLT 301800Z 08012KT 9999 FEW022CB SCT028 32/23 Q//// NOSIG RMK CB-ALQDS
GUQ SVGU Guanare, VE Guanare Airport 6 32/21 29.91 SVGU 301803Z AUTO 09006KT NCD 32/21 Q1013
BRX MDBH Barahona, DO Maria Montez International Airport 10 6.21 32/23 29.91 MDBH 301900Z 13010KT 9999 FEW024 32/23 Q1013
JBQ MDJB La Isabela, DO La Isabela International Airport 4 6.21 32/23 29.94 MDJB 301900Z 06004KT 9999 SCT020 32/23 Q1014
SBJE 13 6.21 32/22 29.73 SBJE 301900Z 04013KT 9999 SCT020 32/22 Q1007
LDB SBLO Londrina, BR Governador José Richa Airport 10 6.21 32/12 29.73 SBLO 301900Z 24010KT CAVOK 32/12 Q1007
PHB SBPB Parnaíba, BR Prefeito Doutor João Silva Filho Airport 15 6.21 32/25 29.73 SBPB 301900Z 07015KT 9999 FEW020 BKN100 32/25 Q1007
SLZ SBSL São Luís, BR Marechal Cunha Machado International Airport 14 6.21 32/23 29.73 SBSL 301900Z 04014KT 9999 FEW030 32/23 Q1007
MSAC San Miguel, SV La Aramuaca Airport 4 6.21 31/18 29.85 MSAC 301750Z 25004KT CAVOK 31/18 Q1011 A2986
SCU MUCU Santiago, CU Antonio Maceo International Airport 9 5.59 31/19 29.97 MUCU 301750Z 01009KT 330V040 9000 FEW020 SCT090 31/19 Q1015